George Bush Intercontinental Houston Airport
KIAH : now visible

Aeroporto :











RITROVATECI SU...

 
LOGIN :

Iscrizione | Disclaimer

   EN    FR    IT 

 









Sommario :    VFR   VFR Marginale   IFR   IFR Intensivo   IFR Molto Intensivo
Visibilità : 
Base nubi : 
>= 8 km
>= 3000ft
5 / 8 km
1000 / 3000 ft
1500m / 5 km
500 / 1000 ft
800 / 1500m
200 / 500 ft
< 800m
< 200 ft
Simboli :   Temporali  Nebbia  Neve Forte  Precipitazioni Forti  Vento > 20 kt






- Altitudine del aeroporto : 97 ft
- Codice IATA : IAH


KIAH - George Bush Intercontinental Houston

ULTIMO METAR :
  • 151453Z 17008KT 9SM FEW011 SCT027 22/19 A2985 RMK AO2 SLP106 T02220194 51013

METARs OBSOLETI :
  • 151424Z 16008KT 9SM FEW011 SCT025 21/19 A2984 RMK AO2 T02110194
  • 151353Z 17007KT 8SM SCT008 BKN020 21/19 A2983 RMK AO2 SLP102 T02060189
  • 151344Z 16007KT 7SM SCT008 BKN020 21/19 A2983 RMK AO2 T02060189
  • 151253Z 17009KT 7SM BKN008 BKN015 21/19 A2983 RMK AO2 SLP099 T02110189

TAF KIAH
Valido dal 15 a 12 ore il 16 a 18 ore UTC


151140Z 1512/1618 17008KT P6SM BKN007 OVC012
FM151500 18011KT P6SM BKN015
FM151900 18011G21KT P6SM FEW015 BKN035
FM160100 17009KT P6SM VCSH BKN015
FM161100 18006KT 6SM -SHRA BR SCT008 BKN012
FM161500 21007KT 6SM -SHRA BKN006



MetMap, La meteo Aeronautica in un colpo d'occhio ! - Copyright ORBIFLY Dicembre 2007 - Disclaimer

ORBIFLY MET'MAP TEAM :

Programmazione e sviluppo : Alexandra Zaïnal
Concezione : Baudouin d'Aumeries
Aiuto per la programmazione : Marc-Olivier Méhu
Supporto tecnico e logistico : Manuel Goepfert
Aiuto per la traduzione : Arnaldo La Scala

Contatto : metmap@orbifly.com




FONTI E CREDITI :

   NOAA       Earth
Advisory